sensor_id;sensor_type;location;lat;lon;timestamp;pressure;altitude;pressure_sealevel;temperature;humidity
51123;BME280;37162;41.724;13.346;2022-12-15T00:00:07;95660.50;;;16.43;65.40
51123;BME280;37162;41.724;13.346;2022-12-15T00:02:51;95651.88;;;16.41;65.06
51123;BME280;37162;41.724;13.346;2022-12-15T00:05:35;95661.28;;;16.43;65.10
51123;BME280;37162;41.724;13.346;2022-12-15T00:08:18;95652.19;;;16.44;64.98
51123;BME280;37162;41.724;13.346;2022-12-15T00:11:03;95644.88;;;16.34;65.29
51123;BME280;37162;41.724;13.346;2022-12-15T00:13:47;95650.31;;;16.45;65.35
51123;BME280;37162;41.724;13.346;2022-12-15T00:16:31;95641.19;;;16.46;65.34
51123;BME280;37162;41.724;13.346;2022-12-15T00:19:15;95648.69;;;16.44;65.53
51123;BME280;37162;41.724;13.346;2022-12-15T00:21:59;95652.19;;;16.44;65.44
51123;BME280;37162;41.724;13.346;2022-12-15T00:24:43;95647.91;;;16.43;65.30
51123;BME280;37162;41.724;13.346;2022-12-15T00:27:27;95642.53;;;16.43;65.07
51123;BME280;37162;41.724;13.346;2022-12-15T00:30:11;95655.41;;;16.46;65.29
51123;BME280;37162;41.724;13.346;2022-12-15T00:32:55;95655.41;;;16.46;64.96
51123;BME280;37162;41.724;13.346;2022-12-15T00:35:39;95666.13;;;16.46;64.98
51123;BME280;37162;41.724;13.346;2022-12-15T00:38:23;95684.09;;;16.46;65.03
51123;BME280;37162;41.724;13.346;2022-12-15T00:41:06;95670.34;;;16.37;64.91
51123;BME280;37162;41.724;13.346;2022-12-15T00:43:33;95662.03;;;16.33;64.92
51123;BME280;37162;41.724;13.346;2022-12-15T00:46:00;95660.91;;;16.29;65.17
51123;BME280;37162;41.724;13.346;2022-12-15T00:48:45;95678.19;;;16.44;64.79
51123;BME280;37162;41.724;13.346;2022-12-15T00:51:11;95676.03;;;16.46;64.94
51123;BME280;37162;41.724;13.346;2022-12-15T00:53:37;95685.97;;;16.45;64.94
51123;BME280;37162;41.724;13.346;2022-12-15T00:56:21;95693.19;;;16.45;64.98
51123;BME280;37162;41.724;13.346;2022-12-15T00:59:05;95684.84;;;16.41;64.84
51123;BME280;37162;41.724;13.346;2022-12-15T01:01:48;95686.50;;;16.42;64.95
51123;BME280;37162;41.724;13.346;2022-12-15T01:04:32;95689.97;;;16.43;65.01
51123;BME280;37162;41.724;13.346;2022-12-15T01:07:16;95696.94;;;16.44;64.79
51123;BME280;37162;41.724;13.346;2022-12-15T01:10:00;95693.47;;;16.43;64.90
51123;BME280;37162;41.724;13.346;2022-12-15T01:12:45;95693.47;;;16.43;65.04
51123;BME280;37162;41.724;13.346;2022-12-15T01:15:29;95686.69;;;16.35;65.11
51123;BME280;37162;41.724;13.346;2022-12-15T01:18:14;95661.34;;;16.16;65.17
51123;BME280;37162;41.724;13.346;2022-12-15T01:21:00;95698.25;;;16.41;65.00
51123;BME280;37162;41.724;13.346;2022-12-15T01:23:26;95700.69;;;16.43;65.02
51123;BME280;37162;41.724;13.346;2022-12-15T01:25:52;95695.56;;;16.41;64.94
51123;BME280;37162;41.724;13.346;2022-12-15T01:28:19;95686.19;;;16.39;64.75
51123;BME280;37162;41.724;13.346;2022-12-15T01:30:46;95694.28;;;16.44;65.00
51123;BME280;37162;41.724;13.346;2022-12-15T01:33:12;95698.81;;;16.43;64.93
51123;BME280;37162;41.724;13.346;2022-12-15T01:35:38;95702.56;;;16.42;64.66
51123;BME280;37162;41.724;13.346;2022-12-15T01:38:04;95707.09;;;16.42;64.68
51123;BME280;37162;41.724;13.346;2022-12-15T01:40:29;95700.09;;;16.35;64.85
51123;BME280;37162;41.724;13.346;2022-12-15T01:43:18;95706.56;;;16.40;64.85
51123;BME280;37162;41.724;13.346;2022-12-15T01:46:18;95707.63;;;16.39;64.75
51123;BME280;37162;41.724;13.346;2022-12-15T01:49:02;95698.78;;;16.38;64.91
51123;BME280;37162;41.724;13.346;2022-12-15T01:51:41;95691.78;;;16.37;64.93
51123;BME280;37162;41.724;13.346;2022-12-15T01:54:13;95689.94;;;16.38;64.87
51123;BME280;37162;41.724;13.346;2022-12-15T01:56:54;95685.63;;;16.36;64.95
51123;BME280;37162;41.724;13.346;2022-12-15T01:59:29;95675.66;;;16.32;64.83
51123;BME280;37162;41.724;13.346;2022-12-15T02:01:56;95676.78;;;16.36;64.96
51123;BME280;37162;41.724;13.346;2022-12-15T02:04:22;95657.97;;;16.31;64.97
51123;BME280;37162;41.724;13.346;2022-12-15T02:06:49;95659.56;;;16.32;64.72
51123;BME280;37162;41.724;13.346;2022-12-15T02:09:15;95654.50;;;16.30;64.85
51123;BME280;37162;41.724;13.346;2022-12-15T02:14:46;95671.97;;;16.38;65.10
51123;BME280;37162;41.724;13.346;2022-12-15T02:17:34;95666.34;;;16.40;65.10
51123;BME280;37162;41.724;13.346;2022-12-15T02:31:34;95681.38;;;16.41;64.92
51123;BME280;37162;41.724;13.346;2022-12-15T02:36:54;95685.91;;;16.40;64.65
51123;BME280;37162;41.724;13.346;2022-12-15T02:39:22;95690.47;;;16.40;64.92
51123;BME280;37162;41.724;13.346;2022-12-15T02:41:48;95692.09;;;16.41;64.58
51123;BME280;37162;41.724;13.346;2022-12-15T02:44:34;95694.78;;;16.41;64.72
51123;BME280;37162;41.724;13.346;2022-12-15T02:50:05;95717.03;;;16.41;64.71
51123;BME280;37162;41.724;13.346;2022-12-15T03:00:58;95732.75;;;16.32;64.81
51123;BME280;37162;41.724;13.346;2022-12-15T03:03:25;95729.56;;;16.35;64.61
51123;BME280;37162;41.724;13.346;2022-12-15T03:05:54;95719.06;;;16.29;64.53
51123;BME280;37162;41.724;13.346;2022-12-15T03:08:22;95742.22;;;16.40;64.68
51123;BME280;37162;41.724;13.346;2022-12-15T03:10:50;95751.06;;;16.41;64.64
51123;BME280;37162;41.724;13.346;2022-12-15T03:13:15;95753.50;;;16.42;64.69
51123;BME280;37162;41.724;13.346;2022-12-15T03:15:41;95738.47;;;16.41;64.88
51123;BME280;37162;41.724;13.346;2022-12-15T03:18:06;95727.69;;;16.36;64.95
51123;BME280;37162;41.724;13.346;2022-12-15T03:20:32;95740.09;;;16.42;64.89
51123;BME280;37162;41.724;13.346;2022-12-15T03:22:57;95746.50;;;16.41;64.64
51123;BME280;37162;41.724;13.346;2022-12-15T03:25:23;95746.50;;;16.41;64.61
51123;BME280;37162;41.724;13.346;2022-12-15T03:27:48;95750.00;;;16.42;64.52
51123;BME280;37162;41.724;13.346;2022-12-15T03:30:15;95750.25;;;16.40;64.49
51123;BME280;37162;41.724;13.346;2022-12-15T03:32:41;95744.91;;;16.40;64.58
51123;BME280;37162;41.724;13.346;2022-12-15T03:35:07;95751.88;;;16.41;64.43
51123;BME280;37162;41.724;13.346;2022-12-15T03:37:32;95757.50;;;16.40;64.27
51123;BME280;37162;41.724;13.346;2022-12-15T03:39:58;95741.59;;;16.28;64.44
51123;BME280;37162;41.724;13.346;2022-12-15T03:42:23;95763.94;;;16.39;64.26
51123;BME280;37162;41.724;13.346;2022-12-15T03:45:07;95761.47;;;16.37;64.43
51123;BME280;37162;41.724;13.346;2022-12-15T03:47:33;95738.28;;;16.21;64.23
51123;BME280;37162;41.724;13.346;2022-12-15T03:49:58;95777.81;;;16.35;64.46
51123;BME280;37162;41.724;13.346;2022-12-15T03:52:24;95777.03;;;16.35;64.26
51123;BME280;37162;41.724;13.346;2022-12-15T03:54:49;95752.84;;;16.30;64.40
51123;BME280;37162;41.724;13.346;2022-12-15T03:57:15;95767.38;;;16.34;64.21
51123;BME280;37162;41.724;13.346;2022-12-15T03:59:40;95752.34;;;16.33;64.28
51123;BME280;37162;41.724;13.346;2022-12-15T04:02:08;95771.34;;;16.31;64.44
51123;BME280;37162;41.724;13.346;2022-12-15T04:04:34;95761.38;;;16.27;64.31
51123;BME280;37162;41.724;13.346;2022-12-15T04:06:59;95765.19;;;16.31;64.51
51123;BME280;37162;41.724;13.346;2022-12-15T04:09:24;95771.34;;;16.31;64.25
51123;BME280;37162;41.724;13.346;2022-12-15T04:11:50;95772.97;;;16.32;64.42
51123;BME280;37162;41.724;13.346;2022-12-15T04:14:15;95767.59;;;16.32;64.42
51123;BME280;37162;41.724;13.346;2022-12-15T04:16:41;95760.38;;;16.33;64.55
51123;BME280;37162;41.724;13.346;2022-12-15T04:19:06;95772.97;;;16.32;64.47
51123;BME280;37162;41.724;13.346;2022-12-15T04:21:55;95772.97;;;16.32;64.34
51123;BME280;37162;41.724;13.346;2022-12-15T04:24:22;95745.19;;;16.17;64.51
51123;BME280;37162;41.724;13.346;2022-12-15T04:27:06;95763.63;;;16.35;64.48
51123;BME280;37162;41.724;13.346;2022-12-15T04:29:50;95774.03;;;16.31;64.25
51123;BME280;37162;41.724;13.346;2022-12-15T04:32:34;95776.22;;;16.34;64.21
51123;BME280;37162;41.724;13.346;2022-12-15T04:35:18;95781.56;;;16.34;64.27
51123;BME280;37162;41.724;13.346;2022-12-15T04:38:02;95789.31;;;16.31;64.19
51123;BME280;37162;41.724;13.346;2022-12-15T04:40:46;95796.84;;;16.34;64.34
51123;BME280;37162;41.724;13.346;2022-12-15T04:43:30;95799.75;;;16.32;64.03
51123;BME280;37162;41.724;13.346;2022-12-15T04:46:14;95812.13;;;16.33;64.17
51123;BME280;37162;41.724;13.346;2022-12-15T04:48:58;95821.19;;;16.32;63.93
51123;BME280;37162;41.724;13.346;2022-12-15T04:51:42;95834.88;;;16.31;64.15
51123;BME280;37162;41.724;13.346;2022-12-15T04:54:26;95841.03;;;16.31;64.22
51123;BME280;37162;41.724;13.346;2022-12-15T04:57:09;95838.34;;;16.31;64.14
51123;BME280;37162;41.724;13.346;2022-12-15T04:59:53;95817.88;;;16.20;64.06
51123;BME280;37162;41.724;13.346;2022-12-15T05:02:37;95835.66;;;16.31;64.04
51123;BME280;37162;41.724;13.346;2022-12-15T05:05:21;95841.56;;;16.28;64.05
51123;BME280;37162;41.724;13.346;2022-12-15T05:08:05;95845.59;;;16.31;64.14
51123;BME280;37162;41.724;13.346;2022-12-15T05:10:49;95835.63;;;16.26;64.46
51123;BME280;37162;41.724;13.346;2022-12-15T05:13:33;95802.44;;;16.05;64.35
51123;BME280;37162;41.724;13.346;2022-12-15T05:16:17;95847.19;;;16.32;64.21
51123;BME280;37162;41.724;13.346;2022-12-15T05:19:01;95845.31;;;16.32;64.63
51123;BME280;37162;41.724;13.346;2022-12-15T05:21:45;95848.00;;;16.32;64.68
51123;BME280;37162;41.724;13.346;2022-12-15T05:24:28;95854.19;;;16.33;64.23
51123;BME280;37162;41.724;13.346;2022-12-15T05:27:13;95854.44;;;16.31;64.22
51123;BME280;37162;41.724;13.346;2022-12-15T05:29:56;95867.59;;;16.33;63.96
51123;BME280;37162;41.724;13.346;2022-12-15T05:32:40;95862.69;;;16.25;63.94
51123;BME280;37162;41.724;13.346;2022-12-15T05:35:06;95870.97;;;16.23;64.11
51123;BME280;37162;41.724;13.346;2022-12-15T05:37:31;95876.88;;;16.25;63.69
51123;BME280;37162;41.724;13.346;2022-12-15T05:39:57;95880.63;;;16.24;63.87
51123;BME280;37162;41.724;13.346;2022-12-15T05:42:22;95890.91;;;16.32;63.82
51123;BME280;37162;41.724;13.346;2022-12-15T05:44:48;95898.13;;;16.32;63.83
51123;BME280;37162;41.724;13.346;2022-12-15T05:47:13;95900.81;;;16.32;63.79
51123;BME280;37162;41.724;13.346;2022-12-15T05:49:38;95893.84;;;16.31;63.88
51123;BME280;37162;41.724;13.346;2022-12-15T05:52:05;95886.47;;;16.21;63.78
51123;BME280;37162;41.724;13.346;2022-12-15T05:54:30;95889.75;;;16.23;63.81
51123;BME280;37162;41.724;13.346;2022-12-15T05:56:56;95903.44;;;16.27;63.77
51123;BME280;37162;41.724;13.346;2022-12-15T05:59:21;95906.91;;;16.27;63.72
51123;BME280;37162;41.724;13.346;2022-12-15T06:01:46;95893.78;;;16.26;63.76
51123;BME280;37162;41.724;13.346;2022-12-15T06:04:12;95906.38;;;16.25;63.53
51123;BME280;37162;41.724;13.346;2022-12-15T06:06:38;95899.00;;;16.16;63.82
51123;BME280;37162;41.724;13.346;2022-12-15T06:09:04;95919.22;;;16.23;63.82
51123;BME280;37162;41.724;13.346;2022-12-15T06:11:30;95921.91;;;16.23;63.76
51123;BME280;37162;41.724;13.346;2022-12-15T06:13:55;95907.22;;;16.09;63.96
51123;BME280;37162;41.724;13.346;2022-12-15T06:16:23;95925.31;;;16.19;64.01
51123;BME280;37162;41.724;13.346;2022-12-15T06:18:53;95941.69;;;16.22;63.99
51123;BME280;37162;41.724;13.346;2022-12-15T06:21:21;95945.19;;;16.23;63.92
51123;BME280;37162;41.724;13.346;2022-12-15T06:23:50;95948.13;;;16.21;63.77
51123;BME280;37162;41.724;13.346;2022-12-15T06:28:45;95959.66;;;16.22;63.95
51123;BME280;37162;41.724;13.346;2022-12-15T06:31:12;95968.50;;;16.22;63.92
51123;BME280;37162;41.724;13.346;2022-12-15T06:33:38;95953.34;;;16.11;63.88
51123;BME280;37162;41.724;13.346;2022-12-15T06:36:06;95985.38;;;16.23;63.76
51123;BME280;37162;41.724;13.346;2022-12-15T06:38:33;95980.28;;;16.21;63.98
51123;BME280;37162;41.724;13.346;2022-12-15T06:41:00;95984.84;;;16.21;63.91
51123;BME280;37162;41.724;13.346;2022-12-15T06:43:27;95991.81;;;16.22;63.77
51123;BME280;37162;41.724;13.346;2022-12-15T06:45:53;95996.38;;;16.21;63.98
51123;BME280;37162;41.724;13.346;2022-12-15T06:48:19;95992.81;;;16.16;63.74
51123;BME280;37162;41.724;13.346;2022-12-15T06:50:46;96005.22;;;16.22;63.78
51123;BME280;37162;41.724;13.346;2022-12-15T06:53:12;95998.09;;;16.10;63.89
51123;BME280;37162;41.724;13.346;2022-12-15T06:55:37;96020.47;;;16.21;63.69
51123;BME280;37162;41.724;13.346;2022-12-15T06:58:03;96011.56;;;16.16;63.84
51123;BME280;37162;41.724;13.346;2022-12-15T07:00:29;96024.78;;;16.22;63.75
51123;BME280;37162;41.724;13.346;2022-12-15T07:02:54;96020.47;;;16.21;63.53
51123;BME280;37162;41.724;13.346;2022-12-15T07:05:20;96025.59;;;16.23;63.67
51123;BME280;37162;41.724;13.346;2022-12-15T07:07:46;96015.94;;;16.22;63.85
51123;BME280;37162;41.724;13.346;2022-12-15T07:10:11;96031.78;;;16.23;63.69
51123;BME280;37162;41.724;13.346;2022-12-15T07:12:40;96043.06;;;16.25;63.41
51123;BME280;37162;41.724;13.346;2022-12-15T07:15:08;96035.81;;;16.26;63.78
51123;BME280;37162;41.724;13.346;2022-12-15T07:17:35;96033.94;;;16.26;63.58
51123;BME280;37162;41.724;13.346;2022-12-15T07:20:02;96031.84;;;16.28;63.64
51123;BME280;37162;41.724;13.346;2022-12-15T07:22:28;96030.78;;;16.29;63.50
51123;BME280;37162;41.724;13.346;2022-12-15T07:24:53;96028.13;;;16.29;63.52
51123;BME280;37162;41.724;13.346;2022-12-15T07:27:19;96030.53;;;16.31;63.43
51123;BME280;37162;41.724;13.346;2022-12-15T07:29:44;96025.97;;;16.31;63.16
51123;BME280;37162;41.724;13.346;2022-12-15T07:32:10;96006.59;;;16.24;63.20
51123;BME280;37162;41.724;13.346;2022-12-15T07:34:35;96010.72;;;16.32;63.28
51123;BME280;37162;41.724;13.346;2022-12-15T07:37:00;96009.84;;;16.26;63.35
51123;BME280;37162;41.724;13.346;2022-12-15T07:39:26;96031.13;;;16.33;63.17
51123;BME280;37162;41.724;13.346;2022-12-15T07:41:52;96038.31;;;16.32;62.90
51123;BME280;37162;41.724;13.346;2022-12-15T07:44:17;96041.00;;;16.32;63.10
51123;BME280;37162;41.724;13.346;2022-12-15T07:46:43;96043.88;;;16.26;62.92
51123;BME280;37162;41.724;13.346;2022-12-15T07:49:11;96061.63;;;16.32;63.04
51123;BME280;37162;41.724;13.346;2022-12-15T07:51:37;96067.81;;;16.32;63.04
51123;BME280;37162;41.724;13.346;2022-12-15T07:54:03;96076.44;;;16.34;62.80
51123;BME280;37162;41.724;13.346;2022-12-15T07:56:28;96083.41;;;16.35;63.12
51123;BME280;37162;41.724;13.346;2022-12-15T07:58:54;96092.25;;;16.36;62.98
51123;BME280;37162;41.724;13.346;2022-12-15T08:01:19;96086.66;;;16.38;62.85
51123;BME280;37162;41.724;13.346;2022-12-15T08:03:45;96090.97;;;16.39;62.82
51123;BME280;37162;41.724;13.346;2022-12-15T08:06:14;96093.66;;;16.39;62.94
51123;BME280;37162;41.724;13.346;2022-12-15T08:08:40;96082.28;;;16.31;62.79
51123;BME280;37162;41.724;13.346;2022-12-15T08:11:07;96086.00;;;16.30;62.82
51123;BME280;37162;41.724;13.346;2022-12-15T08:13:37;96101.44;;;16.40;62.86
51123;BME280;37162;41.724;13.346;2022-12-15T08:16:03;96106.00;;;16.40;62.90
51123;BME280;37162;41.724;13.346;2022-12-15T08:18:28;96107.59;;;16.41;62.75
51123;BME280;37162;41.724;13.346;2022-12-15T08:20:54;96110.28;;;16.41;62.69
51123;BME280;37162;41.724;13.346;2022-12-15T08:23:19;96082.84;;;16.33;62.81
51123;BME280;37162;41.724;13.346;2022-12-15T08:25:45;96094.19;;;16.41;62.71
51123;BME280;37162;41.724;13.346;2022-12-15T08:28:10;96081.72;;;16.29;62.71
51123;BME280;37162;41.724;13.346;2022-12-15T08:30:36;96090.31;;;16.31;62.69
51123;BME280;37162;41.724;13.346;2022-12-15T08:33:02;96107.88;;;16.39;62.61
51123;BME280;37162;41.724;13.346;2022-12-15T08:35:28;96103.31;;;16.40;62.76
51123;BME280;37162;41.724;13.346;2022-12-15T08:37:54;96084.88;;;16.26;62.62
51123;BME280;37162;41.724;13.346;2022-12-15T08:40:19;96098.22;;;16.38;62.72
51123;BME280;37162;41.724;13.346;2022-12-15T08:42:44;96096.56;;;16.37;62.57
51123;BME280;37162;41.724;13.346;2022-12-15T08:45:10;96086.28;;;16.29;62.46
51123;BME280;37162;41.724;13.346;2022-12-15T08:47:39;96103.78;;;16.36;62.77
51123;BME280;37162;41.724;13.346;2022-12-15T08:50:06;96109.75;;;16.39;62.76
51123;BME280;37162;41.724;13.346;2022-12-15T08:52:33;96108.13;;;16.38;62.70
51123;BME280;37162;41.724;13.346;2022-12-15T08:54:58;96103.50;;;16.33;62.86
51123;BME280;37162;41.724;13.346;2022-12-15T08:57:24;96124.75;;;16.40;62.80
51123;BME280;37162;41.724;13.346;2022-12-15T08:59:49;96127.19;;;16.41;62.81
51123;BME280;37162;41.724;13.346;2022-12-15T09:02:15;96130.66;;;16.42;62.71
51123;BME280;37162;41.724;13.346;2022-12-15T09:04:40;96127.50;;;16.45;62.84
51123;BME280;37162;41.724;13.346;2022-12-15T09:07:06;96113.84;;;16.46;62.76
51123;BME280;37162;41.724;13.346;2022-12-15T09:09:32;96121.97;;;16.51;62.65
51123;BME280;37162;41.724;13.346;2022-12-15T09:11:57;96116.94;;;16.55;62.75
51123;BME280;37162;41.724;13.346;2022-12-15T09:14:23;96105.16;;;16.56;62.74
51123;BME280;37162;41.724;13.346;2022-12-15T09:16:48;96112.78;;;16.64;63.13
51123;BME280;37162;41.724;13.346;2022-12-15T09:19:13;96109.03;;;16.65;62.94
51123;BME280;37162;41.724;13.346;2022-12-15T09:21:39;96125.22;;;16.70;62.80
51123;BME280;37162;41.724;13.346;2022-12-15T09:24:10;96104.25;;;16.67;62.76
51123;BME280;37162;41.724;13.346;2022-12-15T09:26:36;96113.53;;;16.76;62.90
51123;BME280;37162;41.724;13.346;2022-12-15T09:29:02;96122.13;;;16.78;62.77
51123;BME280;37162;41.724;13.346;2022-12-15T09:31:32;96117.56;;;16.79;62.64
51123;BME280;37162;41.724;13.346;2022-12-15T09:34:00;96117.34;;;16.80;62.47
51123;BME280;37162;41.724;13.346;2022-12-15T09:36:28;96118.47;;;16.84;62.55
51123;BME280;37162;41.724;13.346;2022-12-15T09:38:54;96116.34;;;16.86;62.80
51123;BME280;37162;41.724;13.346;2022-12-15T09:41:25;96131.16;;;16.89;63.04
51123;BME280;37162;41.724;13.346;2022-12-15T09:46:43;96129.50;;;16.88;62.57
51123;BME280;37162;41.724;13.346;2022-12-15T09:49:21;96117.72;;;16.89;62.70
51123;BME280;37162;41.724;13.346;2022-12-15T09:51:56;96117.97;;;16.88;62.55
51123;BME280;37162;41.724;13.346;2022-12-15T09:54:27;96119.84;;;16.87;62.50
51123;BME280;37162;41.724;13.346;2022-12-15T09:56:57;96108.28;;;16.86;62.65
51123;BME280;37162;41.724;13.346;2022-12-15T10:07:38;96084.09;;;16.81;62.82
51123;BME280;37162;41.724;13.346;2022-12-15T10:12:49;96091.31;;;16.81;62.54
51123;BME280;37162;41.724;13.346;2022-12-15T10:15:24;96083.50;;;16.79;62.75
51123;BME280;37162;41.724;13.346;2022-12-15T10:18:06;96060.94;;;16.75;62.83
51123;BME280;37162;41.724;13.346;2022-12-15T10:20:35;96071.69;;;16.75;62.75
51123;BME280;37162;41.724;13.346;2022-12-15T10:23:10;96057.03;;;16.66;63.07
51123;BME280;37162;41.724;13.346;2022-12-15T10:25:37;96071.59;;;16.70;63.03
51123;BME280;37162;41.724;13.346;2022-12-15T10:30:56;96059.72;;;16.66;63.12
51123;BME280;37162;41.724;13.346;2022-12-15T10:33:24;96059.13;;;16.64;63.38
51123;BME280;37162;41.724;13.346;2022-12-15T10:35:54;96059.66;;;16.61;63.24
51123;BME280;37162;41.724;13.346;2022-12-15T10:38:24;96049.97;;;16.60;63.44
51123;BME280;37162;41.724;13.346;2022-12-15T10:41:05;96055.59;;;16.58;63.47
51123;BME280;37162;41.724;13.346;2022-12-15T10:43:37;96064.91;;;16.56;63.63
51123;BME280;37162;41.724;13.346;2022-12-15T10:48:35;96050.81;;;16.44;63.63
51123;BME280;37162;41.724;13.346;2022-12-15T10:53:45;96063.66;;;16.42;63.80
51123;BME280;37162;41.724;13.346;2022-12-15T10:59:34;96091.03;;;16.44;64.00
51123;BME280;37162;41.724;13.346;2022-12-15T11:04:58;96087.78;;;16.42;64.20
51123;BME280;37162;41.724;13.346;2022-12-15T11:07:44;96077.31;;;16.40;64.20
51123;BME280;37162;41.724;13.346;2022-12-15T11:12:54;96053.91;;;16.35;64.40
51123;BME280;37162;41.724;13.346;2022-12-15T11:17:50;96048.88;;;16.39;64.39
51123;BME280;37162;41.724;13.346;2022-12-15T11:20:25;96058.00;;;16.38;64.43
51123;BME280;37162;41.724;13.346;2022-12-15T11:25:47;96050.44;;;16.35;64.65
51123;BME280;37162;41.724;13.346;2022-12-15T11:28:19;96054.25;;;16.39;64.82
51123;BME280;37162;41.724;13.346;2022-12-15T11:31:02;96052.84;;;16.36;64.67
51123;BME280;37162;41.724;13.346;2022-12-15T11:33:30;96036.69;;;16.31;64.88
51123;BME280;37162;41.724;13.346;2022-12-15T11:39:40;96050.19;;;16.36;64.54
51123;BME280;37162;41.724;13.346;2022-12-15T11:42:52;96050.19;;;16.36;64.77
51123;BME280;37162;41.724;13.346;2022-12-15T11:45:04;96042.38;;;16.35;64.76
51123;BME280;37162;41.724;13.346;2022-12-15T11:47:40;96041.31;;;16.36;64.64
51123;BME280;37162;41.724;13.346;2022-12-15T11:56:38;96035.97;;;16.36;64.71
51123;BME280;37162;41.724;13.346;2022-12-15T11:58:47;96040.25;;;16.37;64.70
51123;BME280;37162;41.724;13.346;2022-12-15T12:04:09;96032.47;;;16.35;65.04
51123;BME280;37162;41.724;13.346;2022-12-15T12:07:07;96037.84;;;16.35;64.81
51123;BME280;37162;41.724;13.346;2022-12-15T12:09:35;96036.22;;;16.34;64.77
51123;BME280;37162;41.724;13.346;2022-12-15T12:12:28;96027.38;;;16.34;65.03
51123;BME280;37162;41.724;13.346;2022-12-15T12:15:29;96017.72;;;16.33;64.82
51123;BME280;37162;41.724;13.346;2022-12-15T12:18:31;96018.53;;;16.33;65.00
51123;BME280;37162;41.724;13.346;2022-12-15T12:21:04;96005.94;;;16.34;65.16
51123;BME280;37162;41.724;13.346;2022-12-15T12:23:37;96005.94;;;16.34;65.03
51123;BME280;37162;41.724;13.346;2022-12-15T12:26:20;96009.41;;;16.34;65.13
51123;BME280;37162;41.724;13.346;2022-12-15T12:34:28;96014.53;;;16.36;65.19
51123;BME280;37162;41.724;13.346;2022-12-15T12:37:03;96012.66;;;16.36;65.33
51123;BME280;37162;41.724;13.346;2022-12-15T12:39:32;96018.00;;;16.36;65.22
51123;BME280;37162;41.724;13.346;2022-12-15T12:42:18;96005.41;;;16.37;65.11
51123;BME280;37162;41.724;13.346;2022-12-15T12:44:45;95994.69;;;16.37;65.20
51123;BME280;37162;41.724;13.346;2022-12-15T12:47:33;95989.31;;;16.37;65.06
51123;BME280;37162;41.724;13.346;2022-12-15T12:50:06;95985.84;;;16.36;65.05
51123;BME280;37162;41.724;13.346;2022-12-15T12:52:55;95971.41;;;16.38;65.01
51123;BME280;37162;41.724;13.346;2022-12-15T12:57:59;95983.75;;;16.39;65.02
51123;BME280;37162;41.724;13.346;2022-12-15T13:00:30;95979.94;;;16.34;65.17
51123;BME280;37162;41.724;13.346;2022-12-15T13:03:15;95957.69;;;16.34;65.14
51123;BME280;37162;41.724;13.346;2022-12-15T13:05:43;95964.16;;;16.38;65.16
51123;BME280;37162;41.724;13.346;2022-12-15T13:10:36;95957.16;;;16.37;65.07
51123;BME280;37162;41.724;13.346;2022-12-15T13:16:04;95936.41;;;16.27;65.09
51123;BME280;37162;41.724;13.346;2022-12-15T13:19:00;95950.19;;;16.36;65.21
51123;BME280;37162;41.724;13.346;2022-12-15T13:21:51;95949.38;;;16.35;65.18
51123;BME280;37162;41.724;13.346;2022-12-15T13:29:33;95941.28;;;16.30;65.30
51123;BME280;37162;41.724;13.346;2022-12-15T13:31:59;95948.31;;;16.36;65.39
51123;BME280;37162;41.724;13.346;2022-12-15T13:34:27;95952.06;;;16.35;65.40
51123;BME280;37162;41.724;13.346;2022-12-15T13:36:55;95947.28;;;16.38;65.15
51123;BME280;37162;41.724;13.346;2022-12-15T13:46:53;95925.25;;;16.35;65.25
51123;BME280;37162;41.724;13.346;2022-12-15T13:51:58;95912.59;;;16.31;65.08
51123;BME280;37162;41.724;13.346;2022-12-15T13:54:30;95930.88;;;16.34;65.24
51123;BME280;37162;41.724;13.346;2022-12-15T13:57:08;95932.50;;;16.35;65.34
51123;BME280;37162;41.724;13.346;2022-12-15T13:59:46;95935.97;;;16.35;65.29
51123;BME280;37162;41.724;13.346;2022-12-15T14:07:34;95929.00;;;16.34;65.43
51123;BME280;37162;41.724;13.346;2022-12-15T14:10:00;95930.63;;;16.35;65.26
51123;BME280;37162;41.724;13.346;2022-12-15T14:12:26;95928.75;;;16.36;65.39
51123;BME280;37162;41.724;13.346;2022-12-15T14:14:52;95924.19;;;16.36;65.56
51123;BME280;37162;41.724;13.346;2022-12-15T14:17:18;95928.50;;;16.38;65.57
51123;BME280;37162;41.724;13.346;2022-12-15T14:19:48;95893.59;;;16.10;65.35
51123;BME280;37162;41.724;13.346;2022-12-15T14:22:23;95927.19;;;16.40;65.58
51123;BME280;37162;41.724;13.346;2022-12-15T14:24:51;95927.19;;;16.40;65.70
51123;BME280;37162;41.724;13.346;2022-12-15T14:27:29;95920.75;;;16.41;65.67
51123;BME280;37162;41.724;13.346;2022-12-15T14:32:37;95903.53;;;16.37;65.95
51123;BME280;37162;41.724;13.346;2022-12-15T14:35:04;95922.41;;;16.42;65.89
51123;BME280;37162;41.724;13.346;2022-12-15T14:37:30;95920.53;;;16.43;65.89
51123;BME280;37162;41.724;13.346;2022-12-15T14:39:55;95914.03;;;16.39;65.48
51123;BME280;37162;41.724;13.346;2022-12-15T14:42:26;95920.28;;;16.44;65.49
51123;BME280;37162;41.724;13.346;2022-12-15T14:44:53;95916.78;;;16.44;65.47
51123;BME280;37162;41.724;13.346;2022-12-15T14:47:25;95915.97;;;16.43;65.48
51123;BME280;37162;41.724;13.346;2022-12-15T14:49:53;95908.75;;;16.44;65.49
51123;BME280;37162;41.724;13.346;2022-12-15T14:55:01;95902.31;;;16.45;65.21
51123;BME280;37162;41.724;13.346;2022-12-15T15:00:24;95918.41;;;16.45;65.32
51123;BME280;37162;41.724;13.346;2022-12-15T15:05:39;95929.94;;;16.45;65.50
51123;BME280;37162;41.724;13.346;2022-12-15T15:08:05;95921.88;;;16.45;65.73
51123;BME280;37162;41.724;13.346;2022-12-15T15:10:34;95915.72;;;16.45;65.22
51123;BME280;37162;41.724;13.346;2022-12-15T15:12:59;95919.94;;;16.41;65.63
51123;BME280;37162;41.724;13.346;2022-12-15T15:15:25;95924.34;;;16.47;65.59
51123;BME280;37162;41.724;13.346;2022-12-15T15:17:56;95908.47;;;16.45;65.40